createdAt,value
2023-02-09T09:26:14.167Z,102152.34
2023-02-09T09:29:16.637Z,102143.13
2023-02-09T09:32:24.626Z,102137.94
2023-02-09T09:35:27.897Z,102137.44
2023-02-09T09:38:30.742Z,102129.91
2023-02-09T09:41:37.513Z,102146.78
2023-02-09T09:44:47.305Z,102139.75
2023-02-09T09:47:50.635Z,102136.63
2023-02-09T09:50:56.969Z,102141.25
2023-02-09T09:54:02.878Z,102155.47
2023-02-09T09:57:19.340Z,102153.03
2023-02-09T10:00:24.643Z,102159.31
2023-02-09T10:03:27.702Z,102154.84
2023-02-09T10:06:34.733Z,102166.88
2023-02-09T10:09:43.214Z,102143.44
2023-02-09T10:12:50.348Z,102154.09
2023-02-09T10:15:54.653Z,102152.56
2023-02-09T10:18:58.996Z,102163.16
2023-02-09T10:22:01.533Z,102136.34
2023-02-09T10:25:24.812Z,102135.47
2023-02-09T10:28:31.045Z,102121.56
2023-02-09T10:31:36.318Z,102109.44
2023-02-09T10:34:45.505Z,102105.06
2023-02-09T10:37:48.090Z,102108.31
2023-02-09T10:40:51.365Z,102095.19
2023-02-09T10:43:55.219Z,102085.88
2023-02-09T10:47:11.315Z,102087.91
2023-02-09T10:50:18.567Z,102088.84
2023-02-09T10:53:24.963Z,102098.47
2023-02-09T10:56:29.353Z,102103.81
2023-02-09T10:59:36.159Z,102099.34
2023-02-09T11:02:41.225Z,102099.34
2023-02-09T11:05:45.761Z,102097.59
2023-02-09T11:08:53.972Z,102102.84
2023-02-09T11:11:56.731Z,102095.09
2023-02-09T11:15:01.375Z,102092.53
2023-02-09T11:18:07.492Z,102092.50
2023-02-09T11:21:15.950Z,102081.97
2023-02-09T11:24:32.161Z,102079.44
2023-02-09T11:27:46.824Z,102084.59
2023-02-09T11:31:04.471Z,102066.34
2023-02-09T11:34:18.440Z,102063.75
2023-02-09T11:37:30.812Z,102058.53
2023-02-09T11:40:37.224Z,102067.25
2023-02-09T11:43:43.044Z,102058.53
2023-02-09T11:46:49.293Z,102067.13
2023-02-09T11:49:54.756Z,102062.84
2023-02-09T11:53:00.330Z,102056.78
2023-02-09T11:56:06.350Z,102061.94
2023-02-09T11:59:16.106Z,102050.59
2023-02-09T12:02:38.499Z,102050.63
2023-02-09T12:05:44.785Z,102046.25
2023-02-09T12:09:00.313Z,102039.25
2023-02-09T12:12:31.361Z,102041.94
2023-02-09T12:15:52.944Z,102035.00
2023-02-09T12:23:11.873Z,102018.44
2023-02-09T12:26:42.697Z,102027.16
2023-02-09T12:29:54.285Z,102032.38
2023-02-09T12:33:42.655Z,102042.84
2023-02-09T12:37:28.666Z,102050.69
2023-02-09T12:49:33.538Z,102060.28
2023-02-09T12:52:36.046Z,102064.63
2023-02-09T12:55:39.904Z,102054.13
2023-02-09T12:58:55.739Z,102058.50
2023-02-09T13:02:13.538Z,102054.97
2023-02-09T13:05:19.446Z,102048.91
2023-02-09T13:08:48.480Z,102051.53
2023-02-09T13:11:56.622Z,102055.91
2023-02-09T13:14:59.143Z,102046.34
2023-02-09T13:18:09.917Z,102041.09
2023-02-09T13:21:21.693Z,102023.66
2023-02-09T13:24:33.826Z,101994.06
2023-02-09T13:27:48.443Z,101994.06
2023-02-09T13:30:50.968Z,102006.25
2023-02-09T13:33:56.899Z,102024.53
2023-02-09T13:37:10.147Z,102015.84
2023-02-09T13:40:18.753Z,102007.13
2023-02-09T13:43:28.182Z,102008.00
2023-02-09T13:46:35.174Z,102008.84
2023-02-09T13:49:37.836Z,102031.50
2023-02-09T13:52:40.964Z,102013.22
2023-02-09T13:55:45.500Z,102014.09
2023-02-09T13:58:50.359Z,102006.25
2023-02-09T14:01:55.755Z,102030.63
2023-02-09T14:05:03.032Z,102022.78
2023-02-09T14:08:06.478Z,102027.97
2023-02-09T14:11:33.233Z,102027.09
2023-02-09T14:15:22.271Z,102022.75
2023-02-09T14:18:34.304Z,102020.97
2023-02-09T14:21:46.693Z,102029.63
2023-02-09T14:24:49.162Z,102020.94
2023-02-09T14:27:52.415Z,102016.56
2023-02-09T14:30:56.347Z,102015.69
2023-02-09T14:33:58.915Z,102011.31
2023-02-09T14:37:05.111Z,101981.69
2023-02-09T14:40:25.503Z,101972.91
2023-02-09T14:43:28.059Z,101982.44
2023-02-09T14:46:48.088Z,101981.56
2023-02-09T14:49:50.560Z,101992.00
2023-02-09T14:52:55.232Z,101980.69
2023-02-09T14:55:58.189Z,101971.94
2023-02-09T14:59:00.826Z,101991.91
2023-02-09T15:02:16.640Z,101999.75
2023-02-09T15:05:20.178Z,101978.81
2023-02-09T15:08:25.012Z,101964.91
2023-02-09T15:11:42.844Z,101980.47
2023-02-09T15:14:47.292Z,101989.16
2023-02-09T15:17:51.760Z,101984.81
2023-02-09T15:20:54.514Z,101976.06
2023-02-09T15:23:57.019Z,101976.00
2023-02-09T15:26:59.569Z,101973.31
2023-02-09T15:30:04.824Z,101975.00
2023-02-09T15:33:12.276Z,101973.22
